sensor_id;sensor_type;location;lat;lon;timestamp;P1;durP1;ratioP1;P2;durP2;ratioP2
39066;SDS011;24821;51.988;6.020;2022-10-31T00:02:02;18.63;;;10.82;;
39066;SDS011;24821;51.988;6.020;2022-10-31T00:04:28;10.07;;;9.32;;
39066;SDS011;24821;51.988;6.020;2022-10-31T00:06:53;11.43;;;10.25;;
39066;SDS011;24821;51.988;6.020;2022-10-31T00:09:19;10.70;;;9.80;;
39066;SDS011;24821;51.988;6.020;2022-10-31T00:11:44;10.65;;;9.85;;
39066;SDS011;24821;51.988;6.020;2022-10-31T00:14:10;10.75;;;9.68;;
39066;SDS011;24821;51.988;6.020;2022-10-31T00:16:35;9.60;;;8.80;;
39066;SDS011;24821;51.988;6.020;2022-10-31T00:19:03;9.73;;;8.88;;
39066;SDS011;24821;51.988;6.020;2022-10-31T00:21:31;10.60;;;9.68;;
39066;SDS011;24821;51.988;6.020;2022-10-31T00:23:58;13.50;;;11.23;;
39066;SDS011;24821;51.988;6.020;2022-10-31T00:26:24;11.68;;;10.73;;
39066;SDS011;24821;51.988;6.020;2022-10-31T00:28:51;11.15;;;10.27;;
39066;SDS011;24821;51.988;6.020;2022-10-31T00:31:17;12.82;;;11.45;;
39066;SDS011;24821;51.988;6.020;2022-10-31T00:33:43;11.23;;;10.35;;
39066;SDS011;24821;51.988;6.020;2022-10-31T00:36:13;10.90;;;10.10;;
39066;SDS011;24821;51.988;6.020;2022-10-31T00:38:40;11.45;;;10.65;;
39066;SDS011;24821;51.988;6.020;2022-10-31T00:41:06;13.63;;;12.45;;
39066;SDS011;24821;51.988;6.020;2022-10-31T00:43:32;13.00;;;11.98;;
39066;SDS011;24821;51.988;6.020;2022-10-31T00:45:57;12.90;;;11.95;;
39066;SDS011;24821;51.988;6.020;2022-10-31T00:48:23;12.80;;;11.80;;
39066;SDS011;24821;51.988;6.020;2022-10-31T00:50:49;13.20;;;12.00;;
39066;SDS011;24821;51.988;6.020;2022-10-31T00:53:14;14.48;;;13.05;;
39066;SDS011;24821;51.988;6.020;2022-10-31T00:55:40;14.32;;;12.95;;
39066;SDS011;24821;51.988;6.020;2022-10-31T00:58:05;14.18;;;12.95;;
39066;SDS011;24821;51.988;6.020;2022-10-31T01:00:31;14.20;;;13.00;;
39066;SDS011;24821;51.988;6.020;2022-10-31T01:02:56;13.18;;;12.10;;
39066;SDS011;24821;51.988;6.020;2022-10-31T01:05:22;12.45;;;11.55;;
39066;SDS011;24821;51.988;6.020;2022-10-31T01:07:48;12.00;;;10.95;;
39066;SDS011;24821;51.988;6.020;2022-10-31T01:10:13;9.63;;;8.93;;
39066;SDS011;24821;51.988;6.020;2022-10-31T01:12:40;8.75;;;8.15;;
39066;SDS011;24821;51.988;6.020;2022-10-31T01:15:09;8.02;;;7.53;;
39066;SDS011;24821;51.988;6.020;2022-10-31T01:17:36;7.93;;;7.47;;
39066;SDS011;24821;51.988;6.020;2022-10-31T01:20:03;9.02;;;8.32;;
39066;SDS011;24821;51.988;6.020;2022-10-31T01:22:29;8.77;;;8.10;;
39066;SDS011;24821;51.988;6.020;2022-10-31T01:24:55;9.23;;;8.63;;
39066;SDS011;24821;51.988;6.020;2022-10-31T01:27:20;11.20;;;10.00;;
39066;SDS011;24821;51.988;6.020;2022-10-31T01:29:46;11.30;;;10.60;;
39066;SDS011;24821;51.988;6.020;2022-10-31T01:32:11;13.93;;;11.40;;
39066;SDS011;24821;51.988;6.020;2022-10-31T01:34:37;12.48;;;11.68;;
39066;SDS011;24821;51.988;6.020;2022-10-31T01:37:02;12.55;;;11.65;;
39066;SDS011;24821;51.988;6.020;2022-10-31T01:39:28;16.00;;;12.25;;
39066;SDS011;24821;51.988;6.020;2022-10-31T01:41:53;12.13;;;11.40;;
39066;SDS011;24821;51.988;6.020;2022-10-31T01:46:46;12.38;;;11.45;;
39066;SDS011;24821;51.988;6.020;2022-10-31T01:49:13;14.07;;;12.93;;
39066;SDS011;24821;51.988;6.020;2022-10-31T01:52:05;13.10;;;11.88;;
39066;SDS011;24821;51.988;6.020;2022-10-31T01:55:35;9.80;;;9.10;;
39066;SDS011;24821;51.988;6.020;2022-10-31T01:57:41;9.65;;;8.63;;
39066;SDS011;24821;51.988;6.020;2022-10-31T02:00:12;8.57;;;8.07;;
39066;SDS011;24821;51.988;6.020;2022-10-31T02:02:38;9.50;;;9.00;;
39066;SDS011;24821;51.988;6.020;2022-10-31T02:05:05;10.48;;;9.88;;
39066;SDS011;24821;51.988;6.020;2022-10-31T02:07:34;16.23;;;10.32;;
39066;SDS011;24821;51.988;6.020;2022-10-31T02:10:04;11.35;;;10.65;;
39066;SDS011;24821;51.988;6.020;2022-10-31T02:12:30;12.13;;;11.43;;
39066;SDS011;24821;51.988;6.020;2022-10-31T02:14:57;12.05;;;11.35;;
39066;SDS011;24821;51.988;6.020;2022-10-31T02:17:24;11.90;;;11.20;;
39066;SDS011;24821;51.988;6.020;2022-10-31T02:31:32;16.67;;;10.80;;
39066;SDS011;24821;51.988;6.020;2022-10-31T02:34:19;11.02;;;10.35;;
39066;SDS011;24821;51.988;6.020;2022-10-31T02:42:39;11.32;;;10.10;;
39066;SDS011;24821;51.988;6.020;2022-10-31T02:48:10;9.95;;;9.32;;
39066;SDS011;24821;51.988;6.020;2022-10-31T02:50:40;10.60;;;9.80;;
39066;SDS011;24821;51.988;6.020;2022-10-31T02:53:08;9.73;;;9.13;;
39066;SDS011;24821;51.988;6.020;2022-10-31T02:58:07;10.98;;;10.15;;
39066;SDS011;24821;51.988;6.020;2022-10-31T03:01:19;10.70;;;9.90;;
39066;SDS011;24821;51.988;6.020;2022-10-31T03:03:28;9.52;;;8.93;;
39066;SDS011;24821;51.988;6.020;2022-10-31T03:06:33;13.82;;;9.00;;
39066;SDS011;24821;51.988;6.020;2022-10-31T03:11:56;9.75;;;8.90;;
39066;SDS011;24821;51.988;6.020;2022-10-31T03:14:28;36.38;;;13.10;;
39066;SDS011;24821;51.988;6.020;2022-10-31T03:17:05;10.82;;;10.02;;
39066;SDS011;24821;51.988;6.020;2022-10-31T03:19:35;9.90;;;9.30;;
39066;SDS011;24821;51.988;6.020;2022-10-31T03:22:24;10.85;;;10.25;;
39066;SDS011;24821;51.988;6.020;2022-10-31T03:24:52;11.55;;;10.85;;
39066;SDS011;24821;51.988;6.020;2022-10-31T03:27:23;14.10;;;13.20;;
39066;SDS011;24821;51.988;6.020;2022-10-31T03:29:52;13.80;;;12.98;;
39066;SDS011;24821;51.988;6.020;2022-10-31T03:32:22;15.18;;;13.98;;
39066;SDS011;24821;51.988;6.020;2022-10-31T03:34:56;13.90;;;12.90;;
39066;SDS011;24821;51.988;6.020;2022-10-31T03:37:24;15.18;;;14.15;;
39066;SDS011;24821;51.988;6.020;2022-10-31T03:39:54;15.77;;;14.63;;
39066;SDS011;24821;51.988;6.020;2022-10-31T03:42:26;16.42;;;15.02;;
39066;SDS011;24821;51.988;6.020;2022-10-31T03:44:58;15.73;;;14.60;;
39066;SDS011;24821;51.988;6.020;2022-10-31T03:47:33;16.95;;;15.43;;
39066;SDS011;24821;51.988;6.020;2022-10-31T03:50:01;16.40;;;15.35;;
39066;SDS011;24821;51.988;6.020;2022-10-31T03:55:27;16.25;;;15.15;;
39066;SDS011;24821;51.988;6.020;2022-10-31T03:57:59;15.43;;;14.48;;
39066;SDS011;24821;51.988;6.020;2022-10-31T04:00:28;15.10;;;14.20;;
39066;SDS011;24821;51.988;6.020;2022-10-31T04:03:14;15.35;;;14.10;;
39066;SDS011;24821;51.988;6.020;2022-10-31T04:05:45;14.75;;;13.70;;
39066;SDS011;24821;51.988;6.020;2022-10-31T04:08:13;101.70;;;25.58;;
39066;SDS011;24821;51.988;6.020;2022-10-31T04:10:42;15.23;;;14.23;;
39066;SDS011;24821;51.988;6.020;2022-10-31T04:13:12;14.27;;;13.30;;
39066;SDS011;24821;51.988;6.020;2022-10-31T04:15:41;14.95;;;14.05;;
39066;SDS011;24821;51.988;6.020;2022-10-31T04:18:09;17.70;;;16.27;;
39066;SDS011;24821;51.988;6.020;2022-10-31T04:20:36;16.50;;;14.20;;
39066;SDS011;24821;51.988;6.020;2022-10-31T04:23:04;16.35;;;15.38;;
39066;SDS011;24821;51.988;6.020;2022-10-31T04:25:30;18.52;;;17.23;;
39066;SDS011;24821;51.988;6.020;2022-10-31T04:27:56;15.75;;;14.75;;
39066;SDS011;24821;51.988;6.020;2022-10-31T04:30:21;16.25;;;15.05;;
39066;SDS011;24821;51.988;6.020;2022-10-31T04:32:47;17.95;;;16.85;;
39066;SDS011;24821;51.988;6.020;2022-10-31T04:35:13;16.80;;;15.82;;
39066;SDS011;24821;51.988;6.020;2022-10-31T04:37:38;17.92;;;16.73;;
39066;SDS011;24821;51.988;6.020;2022-10-31T04:40:04;18.70;;;17.35;;
39066;SDS011;24821;51.988;6.020;2022-10-31T04:42:30;19.85;;;18.60;;
39066;SDS011;24821;51.988;6.020;2022-10-31T04:44:56;19.52;;;18.20;;
39066;SDS011;24821;51.988;6.020;2022-10-31T04:47:21;18.35;;;17.05;;
39066;SDS011;24821;51.988;6.020;2022-10-31T04:49:47;20.02;;;18.13;;
39066;SDS011;24821;51.988;6.020;2022-10-31T04:52:12;18.92;;;17.63;;
39066;SDS011;24821;51.988;6.020;2022-10-31T04:54:38;18.10;;;16.83;;
39066;SDS011;24821;51.988;6.020;2022-10-31T04:57:03;18.33;;;17.00;;
39066;SDS011;24821;51.988;6.020;2022-10-31T04:59:29;17.85;;;16.45;;
39066;SDS011;24821;51.988;6.020;2022-10-31T05:01:54;19.60;;;17.83;;
39066;SDS011;24821;51.988;6.020;2022-10-31T05:04:20;18.17;;;16.88;;
39066;SDS011;24821;51.988;6.020;2022-10-31T05:06:45;17.80;;;16.60;;
39066;SDS011;24821;51.988;6.020;2022-10-31T05:09:11;16.98;;;15.88;;
39066;SDS011;24821;51.988;6.020;2022-10-31T05:11:36;17.27;;;16.08;;
39066;SDS011;24821;51.988;6.020;2022-10-31T05:14:02;15.32;;;14.02;;
39066;SDS011;24821;51.988;6.020;2022-10-31T05:16:28;14.88;;;13.85;;
39066;SDS011;24821;51.988;6.020;2022-10-31T05:18:53;14.02;;;13.13;;
39066;SDS011;24821;51.988;6.020;2022-10-31T05:21:19;19.88;;;15.80;;
39066;SDS011;24821;51.988;6.020;2022-10-31T05:23:44;16.95;;;15.75;;
39066;SDS011;24821;51.988;6.020;2022-10-31T05:26:10;15.73;;;14.73;;
39066;SDS011;24821;51.988;6.020;2022-10-31T05:28:35;14.55;;;13.70;;
39066;SDS011;24821;51.988;6.020;2022-10-31T05:31:01;16.92;;;15.70;;
39066;SDS011;24821;51.988;6.020;2022-10-31T05:33:27;15.63;;;14.48;;
39066;SDS011;24821;51.988;6.020;2022-10-31T05:35:52;15.07;;;14.02;;
39066;SDS011;24821;51.988;6.020;2022-10-31T05:38:18;17.77;;;16.48;;
39066;SDS011;24821;51.988;6.020;2022-10-31T05:40:43;20.48;;;18.45;;
39066;SDS011;24821;51.988;6.020;2022-10-31T05:43:09;19.17;;;17.55;;
39066;SDS011;24821;51.988;6.020;2022-10-31T05:45:34;19.15;;;17.55;;
39066;SDS011;24821;51.988;6.020;2022-10-31T05:48:00;19.55;;;17.70;;
39066;SDS011;24821;51.988;6.020;2022-10-31T05:50:27;18.15;;;16.50;;
39066;SDS011;24821;51.988;6.020;2022-10-31T05:52:57;16.75;;;15.32;;
39066;SDS011;24821;51.988;6.020;2022-10-31T05:55:30;17.70;;;16.20;;
39066;SDS011;24821;51.988;6.020;2022-10-31T05:57:56;17.00;;;15.77;;
39066;SDS011;24821;51.988;6.020;2022-10-31T06:00:23;17.90;;;16.35;;
39066;SDS011;24821;51.988;6.020;2022-10-31T06:02:49;17.52;;;15.85;;
39066;SDS011;24821;51.988;6.020;2022-10-31T06:05:23;17.80;;;16.13;;
39066;SDS011;24821;51.988;6.020;2022-10-31T06:07:49;18.95;;;17.20;;
39066;SDS011;24821;51.988;6.020;2022-10-31T06:10:14;18.63;;;17.10;;
39066;SDS011;24821;51.988;6.020;2022-10-31T06:12:40;19.17;;;17.48;;
39066;SDS011;24821;51.988;6.020;2022-10-31T06:15:06;17.30;;;15.85;;
39066;SDS011;24821;51.988;6.020;2022-10-31T06:17:33;18.98;;;17.35;;
39066;SDS011;24821;51.988;6.020;2022-10-31T06:19:59;17.55;;;15.68;;
39066;SDS011;24821;51.988;6.020;2022-10-31T06:22:26;16.55;;;15.20;;
39066;SDS011;24821;51.988;6.020;2022-10-31T06:24:51;20.77;;;15.95;;
39066;SDS011;24821;51.988;6.020;2022-10-31T06:27:17;15.00;;;13.85;;
39066;SDS011;24821;51.988;6.020;2022-10-31T06:29:43;16.42;;;15.13;;
39066;SDS011;24821;51.988;6.020;2022-10-31T06:32:11;15.63;;;14.52;;
39066;SDS011;24821;51.988;6.020;2022-10-31T06:34:37;16.40;;;14.73;;
39066;SDS011;24821;51.988;6.020;2022-10-31T06:37:03;15.18;;;14.00;;
39066;SDS011;24821;51.988;6.020;2022-10-31T06:39:30;14.77;;;13.65;;
39066;SDS011;24821;51.988;6.020;2022-10-31T06:41:55;16.35;;;15.05;;
39066;SDS011;24821;51.988;6.020;2022-10-31T06:44:21;16.90;;;15.60;;
39066;SDS011;24821;51.988;6.020;2022-10-31T06:46:46;17.38;;;15.63;;
39066;SDS011;24821;51.988;6.020;2022-10-31T06:49:12;16.55;;;15.25;;
39066;SDS011;24821;51.988;6.020;2022-10-31T06:51:38;19.17;;;17.10;;
39066;SDS011;24821;51.988;6.020;2022-10-31T06:54:04;25.30;;;17.17;;
39066;SDS011;24821;51.988;6.020;2022-10-31T06:56:29;17.55;;;16.00;;
39066;SDS011;24821;51.988;6.020;2022-10-31T06:58:55;27.25;;;17.08;;
39066;SDS011;24821;51.988;6.020;2022-10-31T07:01:20;28.85;;;17.30;;
39066;SDS011;24821;51.988;6.020;2022-10-31T07:03:46;18.00;;;15.63;;
39066;SDS011;24821;51.988;6.020;2022-10-31T07:06:11;36.25;;;17.77;;
39066;SDS011;24821;51.988;6.020;2022-10-31T07:08:37;17.70;;;16.20;;
39066;SDS011;24821;51.988;6.020;2022-10-31T07:11:02;16.17;;;14.82;;
39066;SDS011;24821;51.988;6.020;2022-10-31T07:13:28;16.38;;;15.23;;
39066;SDS011;24821;51.988;6.020;2022-10-31T07:15:54;16.73;;;15.32;;
39066;SDS011;24821;51.988;6.020;2022-10-31T07:18:24;16.88;;;15.48;;
39066;SDS011;24821;51.988;6.020;2022-10-31T07:20:51;19.55;;;16.50;;
39066;SDS011;24821;51.988;6.020;2022-10-31T07:23:16;21.08;;;19.38;;
39066;SDS011;24821;51.988;6.020;2022-10-31T07:25:42;25.33;;;21.42;;
39066;SDS011;24821;51.988;6.020;2022-10-31T07:28:08;22.35;;;20.08;;
39066;SDS011;24821;51.988;6.020;2022-10-31T07:30:34;28.70;;;21.88;;
39066;SDS011;24821;51.988;6.020;2022-10-31T07:33:00;25.90;;;23.00;;
39066;SDS011;24821;51.988;6.020;2022-10-31T07:35:26;26.35;;;20.90;;
39066;SDS011;24821;51.988;6.020;2022-10-31T07:37:53;24.73;;;22.23;;
39066;SDS011;24821;51.988;6.020;2022-10-31T07:40:20;31.23;;;22.65;;
39066;SDS011;24821;51.988;6.020;2022-10-31T07:42:47;23.20;;;20.80;;
39066;SDS011;24821;51.988;6.020;2022-10-31T07:45:15;28.25;;;25.90;;
39066;SDS011;24821;51.988;6.020;2022-10-31T07:47:43;30.50;;;27.20;;
39066;SDS011;24821;51.988;6.020;2022-10-31T07:50:11;25.73;;;22.58;;
39066;SDS011;24821;51.988;6.020;2022-10-31T07:52:38;41.35;;;37.20;;
39066;SDS011;24821;51.988;6.020;2022-10-31T07:55:05;26.65;;;24.25;;
39066;SDS011;24821;51.988;6.020;2022-10-31T07:57:31;24.55;;;22.38;;
39066;SDS011;24821;51.988;6.020;2022-10-31T07:59:56;25.63;;;23.00;;
39066;SDS011;24821;51.988;6.020;2022-10-31T08:02:22;24.75;;;21.95;;
39066;SDS011;24821;51.988;6.020;2022-10-31T08:04:48;24.45;;;21.83;;
39066;SDS011;24821;51.988;6.020;2022-10-31T08:07:14;24.17;;;21.73;;
39066;SDS011;24821;51.988;6.020;2022-10-31T08:09:39;22.92;;;20.65;;
39066;SDS011;24821;51.988;6.020;2022-10-31T08:12:05;23.38;;;21.13;;
39066;SDS011;24821;51.988;6.020;2022-10-31T08:14:30;21.10;;;19.38;;
39066;SDS011;24821;51.988;6.020;2022-10-31T08:16:56;20.25;;;18.48;;
39066;SDS011;24821;51.988;6.020;2022-10-31T08:19:21;20.88;;;18.98;;
39066;SDS011;24821;51.988;6.020;2022-10-31T08:21:50;19.65;;;18.10;;
39066;SDS011;24821;51.988;6.020;2022-10-31T08:24:16;20.08;;;18.15;;
39066;SDS011;24821;51.988;6.020;2022-10-31T08:26:42;19.85;;;18.13;;
39066;SDS011;24821;51.988;6.020;2022-10-31T08:29:07;20.23;;;18.27;;
39066;SDS011;24821;51.988;6.020;2022-10-31T08:31:33;20.02;;;18.27;;
39066;SDS011;24821;51.988;6.020;2022-10-31T08:33:59;18.40;;;16.90;;
39066;SDS011;24821;51.988;6.020;2022-10-31T08:36:26;19.25;;;17.52;;
39066;SDS011;24821;51.988;6.020;2022-10-31T08:38:52;21.92;;;20.08;;
39066;SDS011;24821;51.988;6.020;2022-10-31T08:41:18;21.63;;;19.75;;
39066;SDS011;24821;51.988;6.020;2022-10-31T08:43:44;22.98;;;20.73;;
39066;SDS011;24821;51.988;6.020;2022-10-31T08:46:09;22.40;;;20.58;;
39066;SDS011;24821;51.988;6.020;2022-10-31T08:48:35;21.23;;;19.42;;
39066;SDS011;24821;51.988;6.020;2022-10-31T08:51:01;22.27;;;20.17;;
39066;SDS011;24821;51.988;6.020;2022-10-31T08:53:27;24.70;;;22.75;;
39066;SDS011;24821;51.988;6.020;2022-10-31T08:55:54;20.98;;;19.30;;
39066;SDS011;24821;51.988;6.020;2022-10-31T08:58:21;20.70;;;18.90;;
39066;SDS011;24821;51.988;6.020;2022-10-31T09:00:48;22.75;;;20.83;;
39066;SDS011;24821;51.988;6.020;2022-10-31T09:03:18;22.60;;;20.52;;
39066;SDS011;24821;51.988;6.020;2022-10-31T09:05:49;22.95;;;20.95;;
39066;SDS011;24821;51.988;6.020;2022-10-31T09:08:15;24.40;;;22.35;;
39066;SDS011;24821;51.988;6.020;2022-10-31T09:10:41;22.90;;;21.20;;
39066;SDS011;24821;51.988;6.020;2022-10-31T09:13:12;22.65;;;20.70;;
39066;SDS011;24821;51.988;6.020;2022-10-31T09:15:39;25.10;;;23.15;;
39066;SDS011;24821;51.988;6.020;2022-10-31T09:18:07;21.48;;;19.80;;
39066;SDS011;24821;51.988;6.020;2022-10-31T09:20:34;21.05;;;19.35;;
39066;SDS011;24821;51.988;6.020;2022-10-31T09:23:02;23.00;;;20.90;;
39066;SDS011;24821;51.988;6.020;2022-10-31T09:25:30;22.70;;;20.60;;
39066;SDS011;24821;51.988;6.020;2022-10-31T09:27:57;28.73;;;26.33;;
39066;SDS011;24821;51.988;6.020;2022-10-31T09:30:24;25.70;;;23.50;;
39066;SDS011;24821;51.988;6.020;2022-10-31T09:32:57;21.67;;;19.63;;
39066;SDS011;24821;51.988;6.020;2022-10-31T09:35:24;22.65;;;20.67;;
39066;SDS011;24821;51.988;6.020;2022-10-31T09:37:57;25.10;;;23.05;;
39066;SDS011;24821;51.988;6.020;2022-10-31T09:40:36;22.88;;;20.73;;
39066;SDS011;24821;51.988;6.020;2022-10-31T09:45:51;23.33;;;21.02;;
39066;SDS011;24821;51.988;6.020;2022-10-31T09:54:15;22.60;;;20.58;;
39066;SDS011;24821;51.988;6.020;2022-10-31T09:56:50;23.05;;;21.15;;
39066;SDS011;24821;51.988;6.020;2022-10-31T09:59:28;24.30;;;22.20;;
39066;SDS011;24821;51.988;6.020;2022-10-31T10:02:13;23.00;;;21.20;;
39066;SDS011;24821;51.988;6.020;2022-10-31T10:04:53;24.02;;;21.92;;
39066;SDS011;24821;51.988;6.020;2022-10-31T10:07:37;23.83;;;21.75;;
39066;SDS011;24821;51.988;6.020;2022-10-31T10:10:27;23.98;;;21.95;;
39066;SDS011;24821;51.988;6.020;2022-10-31T10:16:00;22.75;;;20.45;;
39066;SDS011;24821;51.988;6.020;2022-10-31T10:24:11;25.30;;;22.98;;
39066;SDS011;24821;51.988;6.020;2022-10-31T10:26:59;24.13;;;22.02;;
39066;SDS011;24821;51.988;6.020;2022-10-31T10:30:01;25.13;;;22.83;;
39066;SDS011;24821;51.988;6.020;2022-10-31T10:32:28;23.25;;;21.08;;
39066;SDS011;24821;51.988;6.020;2022-10-31T10:35:01;25.98;;;23.70;;
39066;SDS011;24821;51.988;6.020;2022-10-31T10:37:44;24.42;;;22.13;;
39066;SDS011;24821;51.988;6.020;2022-10-31T10:40:15;24.42;;;22.05;;
39066;SDS011;24821;51.988;6.020;2022-10-31T10:42:45;22.25;;;20.10;;
39066;SDS011;24821;51.988;6.020;2022-10-31T10:45:42;23.40;;;20.60;;
39066;SDS011;24821;51.988;6.020;2022-10-31T10:48:36;21.60;;;19.60;;
39066;SDS011;24821;51.988;6.020;2022-10-31T10:51:18;22.30;;;20.10;;
39066;SDS011;24821;51.988;6.020;2022-10-31T10:54:00;21.15;;;19.15;;
39066;SDS011;24821;51.988;6.020;2022-10-31T10:59:49;21.45;;;19.48;;
39066;SDS011;24821;51.988;6.020;2022-10-31T11:02:23;21.65;;;19.83;;
39066;SDS011;24821;51.988;6.020;2022-10-31T11:04:51;23.60;;;21.55;;
39066;SDS011;24821;51.988;6.020;2022-10-31T11:07:19;23.58;;;21.63;;
39066;SDS011;24821;51.988;6.020;2022-10-31T11:09:45;21.42;;;19.55;;
39066;SDS011;24821;51.988;6.020;2022-10-31T11:12:22;24.00;;;22.02;;
39066;SDS011;24821;51.988;6.020;2022-10-31T11:14:53;22.02;;;20.02;;
39066;SDS011;24821;51.988;6.020;2022-10-31T11:19:59;23.80;;;21.60;;
39066;SDS011;24821;51.988;6.020;2022-10-31T11:22:48;24.73;;;22.73;;
39066;SDS011;24821;51.988;6.020;2022-10-31T11:25:25;26.05;;;23.75;;
39066;SDS011;24821;51.988;6.020;2022-10-31T11:28:01;25.60;;;23.70;;
39066;SDS011;24821;51.988;6.020;2022-10-31T11:30:43;26.55;;;24.42;;
39066;SDS011;24821;51.988;6.020;2022-10-31T11:33:16;28.02;;;25.63;;
39066;SDS011;24821;51.988;6.020;2022-10-31T11:35:54;27.13;;;24.95;;
39066;SDS011;24821;51.988;6.020;2022-10-31T11:38:21;26.23;;;23.92;;
39066;SDS011;24821;51.988;6.020;2022-10-31T11:46:44;28.73;;;26.40;;
39066;SDS011;24821;51.988;6.020;2022-10-31T11:51:56;28.25;;;26.08;;
39066;SDS011;24821;51.988;6.020;2022-10-31T11:54:27;28.73;;;25.48;;
39066;SDS011;24821;51.988;6.020;2022-10-31T11:56:57;24.05;;;21.90;;
39066;SDS011;24821;51.988;6.020;2022-10-31T11:59:29;25.02;;;22.90;;
39066;SDS011;24821;51.988;6.020;2022-10-31T12:01:57;26.67;;;24.30;;
39066;SDS011;24821;51.988;6.020;2022-10-31T12:04:30;27.35;;;25.13;;
39066;SDS011;24821;51.988;6.020;2022-10-31T12:07:08;25.77;;;23.30;;
39066;SDS011;24821;51.988;6.020;2022-10-31T12:09:34;25.77;;;23.40;;
39066;SDS011;24821;51.988;6.020;2022-10-31T12:12:17;23.70;;;21.35;;
39066;SDS011;24821;51.988;6.020;2022-10-31T12:15:13;25.30;;;20.25;;
39066;SDS011;24821;51.988;6.020;2022-10-31T12:17:48;25.05;;;22.00;;
39066;SDS011;24821;51.988;6.020;2022-10-31T12:20:40;24.15;;;21.52;;
39066;SDS011;24821;51.988;6.020;2022-10-31T12:23:20;25.20;;;22.20;;
39066;SDS011;24821;51.988;6.020;2022-10-31T12:26:08;25.92;;;21.67;;
39066;SDS011;24821;51.988;6.020;2022-10-31T12:28:53;24.17;;;21.23;;
39066;SDS011;24821;51.988;6.020;2022-10-31T12:37:00;24.25;;;21.85;;
39066;SDS011;24821;51.988;6.020;2022-10-31T12:39:36;26.52;;;23.58;;
39066;SDS011;24821;51.988;6.020;2022-10-31T12:44:56;25.77;;;22.73;;
39066;SDS011;24821;51.988;6.020;2022-10-31T12:56:35;25.15;;;22.88;;
39066;SDS011;24821;51.988;6.020;2022-10-31T13:02:00;26.33;;;22.65;;
39066;SDS011;24821;51.988;6.020;2022-10-31T13:04:51;22.92;;;20.58;;
39066;SDS011;24821;51.988;6.020;2022-10-31T13:07:34;24.52;;;21.95;;
39066;SDS011;24821;51.988;6.020;2022-10-31T13:10:17;24.23;;;21.65;;
39066;SDS011;24821;51.988;6.020;2022-10-31T13:12:47;26.88;;;21.05;;
39066;SDS011;24821;51.988;6.020;2022-10-31T13:15:23;23.33;;;20.98;;
39066;SDS011;24821;51.988;6.020;2022-10-31T13:17:56;23.02;;;20.58;;
39066;SDS011;24821;51.988;6.020;2022-10-31T13:20:27;23.33;;;19.70;;
39066;SDS011;24821;51.988;6.020;2022-10-31T13:23:10;20.58;;;18.17;;
39066;SDS011;24821;51.988;6.020;2022-10-31T13:25:53;24.75;;;19.08;;
39066;SDS011;24821;51.988;6.020;2022-10-31T13:28:25;21.25;;;18.42;;
39066;SDS011;24821;51.988;6.020;2022-10-31T13:31:00;20.15;;;18.05;;
39066;SDS011;24821;51.988;6.020;2022-10-31T13:33:30;20.67;;;18.50;;
39066;SDS011;24821;51.988;6.020;2022-10-31T13:36:12;22.75;;;19.40;;
39066;SDS011;24821;51.988;6.020;2022-10-31T13:38:51;20.88;;;18.27;;
39066;SDS011;24821;51.988;6.020;2022-10-31T13:44:23;21.02;;;18.85;;
39066;SDS011;24821;51.988;6.020;2022-10-31T13:46:51;22.38;;;18.95;;
39066;SDS011;24821;51.988;6.020;2022-10-31T13:54:37;22.80;;;19.73;;
39066;SDS011;24821;51.988;6.020;2022-10-31T13:57:46;23.42;;;21.10;;
39066;SDS011;24821;51.988;6.020;2022-10-31T13:59:59;23.80;;;18.17;;
39066;SDS011;24821;51.988;6.020;2022-10-31T14:02:47;20.83;;;17.60;;
39066;SDS011;24821;51.988;6.020;2022-10-31T14:05:26;21.92;;;18.15;;
39066;SDS011;24821;51.988;6.020;2022-10-31T14:07:55;20.50;;;18.27;;
39066;SDS011;24821;51.988;6.020;2022-10-31T14:10:27;20.35;;;17.75;;
39066;SDS011;24821;51.988;6.020;2022-10-31T14:13:02;21.73;;;18.10;;
39066;SDS011;24821;51.988;6.020;2022-10-31T14:15:42;19.77;;;17.48;;
39066;SDS011;24821;51.988;6.020;2022-10-31T14:18:21;23.98;;;17.63;;
39066;SDS011;24821;51.988;6.020;2022-10-31T14:20:56;21.42;;;17.35;;
39066;SDS011;24821;51.988;6.020;2022-10-31T14:26:16;20.00;;;17.95;;
39066;SDS011;24821;51.988;6.020;2022-10-31T14:28:52;20.48;;;17.63;;
39066;SDS011;24821;51.988;6.020;2022-10-31T14:31:26;19.02;;;16.92;;
39066;SDS011;24821;51.988;6.020;2022-10-31T14:53:03;18.55;;;16.20;;
39066;SDS011;24821;51.988;6.020;2022-10-31T14:55:30;19.50;;;17.05;;
39066;SDS011;24821;51.988;6.020;2022-10-31T15:00:24;21.27;;;18.08;;
39066;SDS011;24821;51.988;6.020;2022-10-31T15:05:51;20.85;;;17.95;;
39066;SDS011;24821;51.988;6.020;2022-10-31T15:11:10;21.50;;;17.80;;
39066;SDS011;24821;51.988;6.020;2022-10-31T15:16:45;21.08;;;18.90;;
39066;SDS011;24821;51.988;6.020;2022-10-31T15:19:11;21.33;;;19.05;;
39066;SDS011;24821;51.988;6.020;2022-10-31T15:21:44;23.88;;;17.65;;
39066;SDS011;24821;51.988;6.020;2022-10-31T15:24:11;25.88;;;21.73;;
39066;SDS011;24821;51.988;6.020;2022-10-31T15:26:43;20.73;;;18.58;;
39066;SDS011;24821;51.988;6.020;2022-10-31T15:29:12;23.42;;;21.25;;
39066;SDS011;24821;51.988;6.020;2022-10-31T15:31:39;24.00;;;21.67;;
39066;SDS011;24821;51.988;6.020;2022-10-31T15:34:16;20.67;;;18.65;;
39066;SDS011;24821;51.988;6.020;2022-10-31T15:36:49;23.50;;;21.10;;
39066;SDS011;24821;51.988;6.020;2022-10-31T15:39:15;23.25;;;19.80;;
39066;SDS011;24821;51.988;6.020;2022-10-31T15:41:49;28.67;;;20.83;;
39066;SDS011;24821;51.988;6.020;2022-10-31T15:44:15;22.50;;;20.10;;
39066;SDS011;24821;51.988;6.020;2022-10-31T15:46:56;24.50;;;21.88;;
39066;SDS011;24821;51.988;6.020;2022-10-31T15:51:53;22.08;;;19.15;;
39066;SDS011;24821;51.988;6.020;2022-10-31T15:54:18;28.02;;;20.73;;
39066;SDS011;24821;51.988;6.020;2022-10-31T15:56:44;24.63;;;20.15;;
39066;SDS011;24821;51.988;6.020;2022-10-31T15:59:19;21.20;;;19.20;;
39066;SDS011;24821;51.988;6.020;2022-10-31T16:02:01;21.00;;;18.95;;
39066;SDS011;24821;51.988;6.020;2022-10-31T16:04:33;23.83;;;21.45;;
39066;SDS011;24821;51.988;6.020;2022-10-31T16:07:03;21.90;;;19.70;;
39066;SDS011;24821;51.988;6.020;2022-10-31T16:09:48;21.60;;;18.42;;
39066;SDS011;24821;51.988;6.020;2022-10-31T16:12:22;21.70;;;19.45;;
39066;SDS011;24821;51.988;6.020;2022-10-31T16:14:50;21.98;;;19.77;;
39066;SDS011;24821;51.988;6.020;2022-10-31T16:17:19;23.38;;;21.10;;
39066;SDS011;24821;51.988;6.020;2022-10-31T16:19:55;21.70;;;19.52;;
39066;SDS011;24821;51.988;6.020;2022-10-31T16:22:28;22.60;;;20.38;;
39066;SDS011;24821;51.988;6.020;2022-10-31T16:27:46;22.33;;;20.17;;
39066;SDS011;24821;51.988;6.020;2022-10-31T16:33:20;22.38;;;20.05;;
39066;SDS011;24821;51.988;6.020;2022-10-31T16:35:51;25.42;;;22.73;;
39066;SDS011;24821;51.988;6.020;2022-10-31T16:38:17;24.08;;;21.65;;
39066;SDS011;24821;51.988;6.020;2022-10-31T16:40:43;44.35;;;39.75;;
39066;SDS011;24821;51.988;6.020;2022-10-31T16:43:14;40.95;;;36.75;;
39066;SDS011;24821;51.988;6.020;2022-10-31T16:45:45;30.05;;;27.13;;
39066;SDS011;24821;51.988;6.020;2022-10-31T16:48:14;27.15;;;24.52;;
39066;SDS011;24821;51.988;6.020;2022-10-31T16:50:42;25.30;;;23.08;;
39066;SDS011;24821;51.988;6.020;2022-10-31T16:53:08;27.02;;;24.55;;
39066;SDS011;24821;51.988;6.020;2022-10-31T16:55:37;27.90;;;25.02;;